Nathalie — OJLP — position and weather

sailwx.info

Track history (hours):
 
Tides and Currents Weather Stations Pressure Air Temp Water Temp Dewpoint Dewpoint Depression Visibility Wind Speed Wind Dir Waves Ship Positions

Nathalie

Last reported at 2014-Aug-21 11:14 UTC. Time now 2014-Aug-21 12:12 UTC.
Position N 57°38' E 010°08'.

Length 64 m; draft 2.3 m.

Type: Cargo ship. MMSI: 230987660.

Date/timePositionNaut miles runAvg speedWind from/ knotsBaromVisibWave heightAir tempDewpointWater temp
2014-Aug-21 11:14N 57°38' E 010°08'3 4.7
2014-Aug-21 10:32N 57°39' E 010°14'4 3.9
2014-Aug-21 09:33N 57°41' E 010°20'3 2.8
2014-Aug-21 08:33N 57°43' E 010°24'2 1.9
2014-Aug-21 07:33N 57°44' E 010°27'2 2.3
2014-Aug-21 06:33N 57°45' E 010°31'2 2.2
2014-Aug-21 05:33N 57°46' E 010°35'4 3.8
2014-Aug-21 04:33N 57°46' E 010°42'6 5.8
2014-Aug-21 03:33N 57°41' E 010°37'1 0.4
2014-Aug-21 00:32N 57°41' E 010°35'0 0.0
2014-Aug-20 23:32N 57°41' E 010°35'0 0.0
2014-Aug-20 21:05N 57°41' E 010°35'0 0.0
2014-Aug-20 20:32N 57°41' E 010°35'0 0.0
2014-Aug-20 19:32N 57°41' E 010°35'0 0.0
2014-Aug-20 17:32N 57°41' E 010°35'0 0.0
2014-Aug-20 16:32N 57°41' E 010°35'0 0.0
2014-Aug-20 15:32N 57°41' E 010°35'0 0.0
2014-Aug-20 13:17N 57°41' E 010°35'0 0.0
2014-Aug-20 12:32N 57°41' E 010°35'0 0.0
2014-Aug-20 11:32N 57°41' E 010°35'0 0.0
2014-Aug-20 09:26N 57°41' E 010°35'0 0.0
2014-Aug-20 08:32N 57°41' E 010°35'0 0.0
2014-Aug-20 07:32N 57°41' E 010°35'0 0.0
2014-Aug-20 05:32N 57°41' E 010°35'0 0.0
2014-Aug-20 04:32N 57°41' E 010°35'0 0.0
2014-Aug-20 03:32N 57°41' E 010°35'0 0.0
2014-Aug-20 02:32N 57°41' E 010°35'0 0.0
2014-Aug-20 01:32N 57°41' E 010°35'0 0.0
2014-Aug-20 00:32N 57°41' E 010°35'0 0.0
2014-Aug-19 21:31N 57°41' E 010°35'0 0.0
2014-Aug-19 20:31N 57°41' E 010°35'0 0.0
2014-Aug-19 17:31N 57°41' E 010°35'0 0.0
2014-Aug-19 16:31N 57°41' E 010°35'0 0.0
2014-Aug-19 15:31N 57°41' E 010°35'0 0.0
2014-Aug-19 14:19N 57°41' E 010°35'0 0.1
2014-Aug-19 13:31N 57°41' E 010°35'0 0.0
2014-Aug-19 12:31N 57°41' E 010°35'0 0.0
2014-Aug-19 09:31N 57°41' E 010°34'0 0.0
2014-Aug-19 08:28N 57°41' E 010°35'0 0.0
2014-Aug-19 07:33N 57°41' E 010°34'6 5.6
2014-Aug-19 06:33N 57°36' E 010°39'9 8.5
2014-Aug-19 05:30N 57°27' E 010°45'9 7.1
2014-Aug-19 04:16N 57°18' E 010°44'72 6.6
2014-Aug-18 17:20N 56°20' E 012°00'6 8.0
2014-Aug-18 16:33N 56°17' E 012°10'7 6.9
2014-Aug-18 15:33N 56°12' E 012°20'7 7.4
2014-Aug-18 14:33N 56°08' E 012°30'8 7.9
2014-Aug-18 13:33N 56°02' E 012°40'8 8.2
2014-Aug-18 12:33N 55°55' E 012°44'9 8.5
2014-Aug-18 11:33N 55°46' E 012°43'9 8.6
2014-Aug-18 10:33N 55°37' E 012°42'8 8.4
2014-Aug-18 09:33N 55°29' E 012°43'10 9.5
2014-Aug-18 08:33N 55°20' E 012°42'6 6.4
2014-Aug-18 07:33N 55°16' E 012°52'5 4.6
2014-Aug-18 06:33N 55°17' E 012°60'4 4.5
2014-Aug-18 05:33N 55°17' E 013°07'4 3.5
2014-Aug-18 04:33N 55°17' E 013°14'3 3.3
2014-Aug-18 03:33N 55°17' E 013°20'3 3.4
2014-Aug-18 02:33N 55°17' E 013°25'2 2.4
2014-Aug-18 01:32N 55°18' E 013°30'73 3.7
2014-Aug-17 05:33N 55°49' E 015°27'8 8.2
2014-Aug-17 04:33N 55°53' E 015°39'8 8.0
2014-Aug-17 03:33N 55°59' E 015°49'8 8.1
2014-Aug-17 02:33N 56°05' E 015°58'8 7.9
2014-Aug-17 01:32N 56°12' E 016°05'44 8.5
2014-Aug-16 20:21N 56°53' E 016°34'7 9.1
2014-Aug-16 19:33N 56°60' E 016°39'9 9.2
2014-Aug-16 18:33N 57°08' E 016°47'10 9.6
2014-Aug-16 17:33N 57°16' E 016°55'9 9.4
2014-Aug-16 16:33N 57°24' E 017°04'9 9.4
2014-Aug-16 15:33N 57°31' E 017°17'9 9.2
2014-Aug-16 14:33N 57°37' E 017°29'  
2014-Aug-14 05:28N 59°53' E 022°49'6 6.5
2014-Aug-14 04:32N 59°47' E 022°53'19 7.8
2014-Aug-14 02:10N 59°42' E 023°29'5 8.2
2014-Aug-14 01:31N 59°41' E 023°39'8 8.0
2014-Aug-14 00:33N 59°40' E 023°55'  
Track history (hours):
 
Tides and Currents Weather Stations Pressure Air Temp Water Temp Dewpoint Dewpoint Depression Visibility Wind Speed Wind Dir Waves Ship Positions

Nathalie

Last reported at 2014-Aug-21 11:14 UTC. Time now 2014-Aug-21 12:12 UTC.
Position N 57°38' E 010°08'.

Length 64 m; draft 2.3 m.

Type: Cargo ship. MMSI: 230987660.

Date/timePositionNaut miles runAvg speedWind from/ knotsBaromVisibWave heightAir tempDewpointWater temp
2014-Aug-21 11:14N 57°38' E 010°08'3 4.7
2014-Aug-21 10:32N 57°39' E 010°14'4 3.9
2014-Aug-21 09:33N 57°41' E 010°20'3 2.8
2014-Aug-21 08:33N 57°43' E 010°24'2 1.9
2014-Aug-21 07:33N 57°44' E 010°27'2 2.3
2014-Aug-21 06:33N 57°45' E 010°31'2 2.2
2014-Aug-21 05:33N 57°46' E 010°35'4 3.8
2014-Aug-21 04:33N 57°46' E 010°42'6 5.8
2014-Aug-21 03:33N 57°41' E 010°37'1 0.4
2014-Aug-21 00:32N 57°41' E 010°35'0 0.0
2014-Aug-20 23:32N 57°41' E 010°35'0 0.0
2014-Aug-20 21:05N 57°41' E 010°35'0 0.0
2014-Aug-20 20:32N 57°41' E 010°35'0 0.0
2014-Aug-20 19:32N 57°41' E 010°35'0 0.0
2014-Aug-20 17:32N 57°41' E 010°35'0 0.0
2014-Aug-20 16:32N 57°41' E 010°35'0 0.0
2014-Aug-20 15:32N 57°41' E 010°35'0 0.0
2014-Aug-20 13:17N 57°41' E 010°35'0 0.0
2014-Aug-20 12:32N 57°41' E 010°35'0 0.0
2014-Aug-20 11:32N 57°41' E 010°35'0 0.0
2014-Aug-20 09:26N 57°41' E 010°35'0 0.0
2014-Aug-20 08:32N 57°41' E 010°35'0 0.0
2014-Aug-20 07:32N 57°41' E 010°35'0 0.0
2014-Aug-20 05:32N 57°41' E 010°35'0 0.0
2014-Aug-20 04:32N 57°41' E 010°35'0 0.0
2014-Aug-20 03:32N 57°41' E 010°35'0 0.0
2014-Aug-20 02:32N 57°41' E 010°35'0 0.0
2014-Aug-20 01:32N 57°41' E 010°35'0 0.0
2014-Aug-20 00:32N 57°41' E 010°35'0 0.0
2014-Aug-19 21:31N 57°41' E 010°35'0 0.0
2014-Aug-19 20:31N 57°41' E 010°35'0 0.0
2014-Aug-19 17:31N 57°41' E 010°35'0 0.0
2014-Aug-19 16:31N 57°41' E 010°35'0 0.0
2014-Aug-19 15:31N 57°41' E 010°35'0 0.0
2014-Aug-19 14:19N 57°41' E 010°35'0 0.1
2014-Aug-19 13:31N 57°41' E 010°35'0 0.0
2014-Aug-19 12:31N 57°41' E 010°35'0 0.0
2014-Aug-19 09:31N 57°41' E 010°34'0 0.0
2014-Aug-19 08:28N 57°41' E 010°35'0 0.0
2014-Aug-19 07:33N 57°41' E 010°34'6 5.6
2014-Aug-19 06:33N 57°36' E 010°39'9 8.5
2014-Aug-19 05:30N 57°27' E 010°45'9 7.1
2014-Aug-19 04:16N 57°18' E 010°44'72 6.6
2014-Aug-18 17:20N 56°20' E 012°00'6 8.0
2014-Aug-18 16:33N 56°17' E 012°10'7 6.9
2014-Aug-18 15:33N 56°12' E 012°20'7 7.4
2014-Aug-18 14:33N 56°08' E 012°30'8 7.9
2014-Aug-18 13:33N 56°02' E 012°40'8 8.2
2014-Aug-18 12:33N 55°55' E 012°44'9 8.5
2014-Aug-18 11:33N 55°46' E 012°43'9 8.6
2014-Aug-18 10:33N 55°37' E 012°42'8 8.4
2014-Aug-18 09:33N 55°29' E 012°43'10 9.5
2014-Aug-18 08:33N 55°20' E 012°42'6 6.4
2014-Aug-18 07:33N 55°16' E 012°52'5 4.6
2014-Aug-18 06:33N 55°17' E 012°60'4 4.5
2014-Aug-18 05:33N 55°17' E 013°07'4 3.5
2014-Aug-18 04:33N 55°17' E 013°14'3 3.3
2014-Aug-18 03:33N 55°17' E 013°20'3 3.4
2014-Aug-18 02:33N 55°17' E 013°25'2 2.4
2014-Aug-18 01:32N 55°18' E 013°30'73 3.7
2014-Aug-17 05:33N 55°49' E 015°27'8 8.2
2014-Aug-17 04:33N 55°53' E 015°39'8 8.0
2014-Aug-17 03:33N 55°59' E 015°49'8 8.1
2014-Aug-17 02:33N 56°05' E 015°58'8 7.9
2014-Aug-17 01:32N 56°12' E 016°05'44 8.5
2014-Aug-16 20:21N 56°53' E 016°34'7 9.1
2014-Aug-16 19:33N 56°60' E 016°39'9 9.2
2014-Aug-16 18:33N 57°08' E 016°47'10 9.6
2014-Aug-16 17:33N 57°16' E 016°55'9 9.4
2014-Aug-16 16:33N 57°24' E 017°04'9 9.4
2014-Aug-16 15:33N 57°31' E 017°17'9 9.2
2014-Aug-16 14:33N 57°37' E 017°29'  
2014-Aug-14 05:28N 59°53' E 022°49'6 6.5
2014-Aug-14 04:32N 59°47' E 022°53'19 7.8
2014-Aug-14 02:10N 59°42' E 023°29'5 8.2
2014-Aug-14 01:31N 59°41' E 023°39'8 8.0
2014-Aug-14 00:33N 59°40' E 023°55'  

Dump ship's entire track history